sensor_id;sensor_type;location;lat;lon;timestamp;P1;durP1;ratioP1;P2;durP2;ratioP2
17763;SDS011;22245;52.832;13.816;2023-12-07T00:00:50;180.80;;;68.53;;
17763;SDS011;22245;52.832;13.816;2023-12-07T00:04:11;178.33;;;68.90;;
17763;SDS011;22245;52.832;13.816;2023-12-07T00:07:33;181.40;;;69.43;;
17763;SDS011;22245;52.832;13.816;2023-12-07T00:10:55;179.20;;;68.33;;
17763;SDS011;22245;52.832;13.816;2023-12-07T00:14:17;177.83;;;66.43;;
17763;SDS011;22245;52.832;13.816;2023-12-07T00:17:39;181.50;;;70.53;;
17763;SDS011;22245;52.832;13.816;2023-12-07T00:21:00;177.43;;;65.27;;
17763;SDS011;22245;52.832;13.816;2023-12-07T00:24:22;172.97;;;64.83;;
17763;SDS011;22245;52.832;13.816;2023-12-07T00:27:45;168.73;;;66.03;;
17763;SDS011;22245;52.832;13.816;2023-12-07T00:31:07;169.90;;;64.93;;
17763;SDS011;22245;52.832;13.816;2023-12-07T00:34:30;179.40;;;69.47;;
17763;SDS011;22245;52.832;13.816;2023-12-07T00:37:52;169.00;;;64.33;;
17763;SDS011;22245;52.832;13.816;2023-12-07T00:41:13;168.83;;;64.47;;
17763;SDS011;22245;52.832;13.816;2023-12-07T00:44:39;174.50;;;67.50;;
17763;SDS011;22245;52.832;13.816;2023-12-07T00:48:01;181.23;;;64.13;;
17763;SDS011;22245;52.832;13.816;2023-12-07T00:51:23;177.57;;;64.83;;
17763;SDS011;22245;52.832;13.816;2023-12-07T00:54:45;166.33;;;64.80;;
17763;SDS011;22245;52.832;13.816;2023-12-07T00:58:06;167.43;;;63.03;;
17763;SDS011;22245;52.832;13.816;2023-12-07T01:01:29;159.77;;;62.67;;
17763;SDS011;22245;52.832;13.816;2023-12-07T01:04:51;168.27;;;62.70;;
17763;SDS011;22245;52.832;13.816;2023-12-07T01:08:12;170.77;;;65.63;;
17763;SDS011;22245;52.832;13.816;2023-12-07T01:11:34;178.73;;;69.07;;
17763;SDS011;22245;52.832;13.816;2023-12-07T01:14:55;171.83;;;65.47;;
17763;SDS011;22245;52.832;13.816;2023-12-07T01:18:18;169.53;;;64.87;;
17763;SDS011;22245;52.832;13.816;2023-12-07T01:21:40;164.57;;;64.53;;
17763;SDS011;22245;52.832;13.816;2023-12-07T01:25:02;176.73;;;67.37;;
17763;SDS011;22245;52.832;13.816;2023-12-07T01:28:24;174.67;;;70.20;;
17763;SDS011;22245;52.832;13.816;2023-12-07T01:31:46;178.17;;;68.03;;
17763;SDS011;22245;52.832;13.816;2023-12-07T01:35:09;177.27;;;66.43;;
17763;SDS011;22245;52.832;13.816;2023-12-07T01:38:31;178.70;;;67.83;;
17763;SDS011;22245;52.832;13.816;2023-12-07T01:41:52;175.27;;;66.17;;
17763;SDS011;22245;52.832;13.816;2023-12-07T01:45:14;172.70;;;67.27;;
17763;SDS011;22245;52.832;13.816;2023-12-07T01:48:36;170.30;;;65.37;;
17763;SDS011;22245;52.832;13.816;2023-12-07T01:51:59;171.47;;;65.47;;
17763;SDS011;22245;52.832;13.816;2023-12-07T01:55:21;173.97;;;65.77;;
17763;SDS011;22245;52.832;13.816;2023-12-07T01:58:43;173.57;;;67.03;;
17763;SDS011;22245;52.832;13.816;2023-12-07T02:02:05;181.67;;;68.20;;
17763;SDS011;22245;52.832;13.816;2023-12-07T02:05:27;169.10;;;66.53;;
17763;SDS011;22245;52.832;13.816;2023-12-07T02:08:50;181.70;;;67.07;;
17763;SDS011;22245;52.832;13.816;2023-12-07T02:12:11;171.10;;;66.40;;
17763;SDS011;22245;52.832;13.816;2023-12-07T02:15:33;171.83;;;66.33;;
17763;SDS011;22245;52.832;13.816;2023-12-07T02:18:56;163.67;;;66.20;;
17763;SDS011;22245;52.832;13.816;2023-12-07T02:22:25;169.07;;;65.60;;
17763;SDS011;22245;52.832;13.816;2023-12-07T02:25:52;175.43;;;66.40;;
17763;SDS011;22245;52.832;13.816;2023-12-07T02:29:16;180.73;;;67.63;;
17763;SDS011;22245;52.832;13.816;2023-12-07T02:32:37;175.53;;;66.67;;
17763;SDS011;22245;52.832;13.816;2023-12-07T02:35:59;169.07;;;64.67;;
17763;SDS011;22245;52.832;13.816;2023-12-07T02:39:21;178.33;;;66.80;;
17763;SDS011;22245;52.832;13.816;2023-12-07T02:42:44;174.27;;;66.30;;
17763;SDS011;22245;52.832;13.816;2023-12-07T02:46:07;167.63;;;66.80;;
17763;SDS011;22245;52.832;13.816;2023-12-07T02:49:29;182.03;;;68.27;;
17763;SDS011;22245;52.832;13.816;2023-12-07T02:52:50;179.23;;;67.50;;
17763;SDS011;22245;52.832;13.816;2023-12-07T02:56:12;186.17;;;69.10;;
17763;SDS011;22245;52.832;13.816;2023-12-07T02:59:34;167.87;;;65.57;;
17763;SDS011;22245;52.832;13.816;2023-12-07T03:02:57;173.30;;;65.57;;
17763;SDS011;22245;52.832;13.816;2023-12-07T03:06:19;172.13;;;66.43;;
17763;SDS011;22245;52.832;13.816;2023-12-07T03:09:40;174.37;;;67.13;;
17763;SDS011;22245;52.832;13.816;2023-12-07T03:13:02;179.23;;;70.13;;
17763;SDS011;22245;52.832;13.816;2023-12-07T03:16:23;192.37;;;74.87;;
17763;SDS011;22245;52.832;13.816;2023-12-07T03:19:46;177.87;;;65.57;;
17763;SDS011;22245;52.832;13.816;2023-12-07T03:23:08;179.53;;;72.27;;
17763;SDS011;22245;52.832;13.816;2023-12-07T03:26:30;172.23;;;67.07;;
17763;SDS011;22245;52.832;13.816;2023-12-07T03:29:52;181.77;;;69.80;;
17763;SDS011;22245;52.832;13.816;2023-12-07T03:33:13;178.20;;;69.07;;
17763;SDS011;22245;52.832;13.816;2023-12-07T03:36:36;174.87;;;65.60;;
17763;SDS011;22245;52.832;13.816;2023-12-07T03:39:59;169.27;;;64.70;;
17763;SDS011;22245;52.832;13.816;2023-12-07T03:43:21;172.23;;;65.87;;
17763;SDS011;22245;52.832;13.816;2023-12-07T03:46:42;182.27;;;68.63;;
17763;SDS011;22245;52.832;13.816;2023-12-07T03:50:04;173.47;;;65.90;;
17763;SDS011;22245;52.832;13.816;2023-12-07T03:53:28;181.83;;;69.03;;
17763;SDS011;22245;52.832;13.816;2023-12-07T03:56:49;171.00;;;68.70;;
17763;SDS011;22245;52.832;13.816;2023-12-07T04:00:12;170.40;;;65.97;;
17763;SDS011;22245;52.832;13.816;2023-12-07T04:03:34;177.17;;;67.23;;
17763;SDS011;22245;52.832;13.816;2023-12-07T04:06:56;180.13;;;67.87;;
17763;SDS011;22245;52.832;13.816;2023-12-07T04:10:20;179.57;;;68.13;;
17763;SDS011;22245;52.832;13.816;2023-12-07T04:13:41;174.27;;;67.17;;
17763;SDS011;22245;52.832;13.816;2023-12-07T04:17:03;181.80;;;66.27;;
17763;SDS011;22245;52.832;13.816;2023-12-07T04:20:25;165.67;;;65.27;;
17763;SDS011;22245;52.832;13.816;2023-12-07T04:23:46;172.70;;;66.97;;
17763;SDS011;22245;52.832;13.816;2023-12-07T04:27:10;175.87;;;67.93;;
17763;SDS011;22245;52.832;13.816;2023-12-07T04:30:32;167.10;;;65.43;;
17763;SDS011;22245;52.832;13.816;2023-12-07T04:33:53;182.00;;;66.33;;
17763;SDS011;22245;52.832;13.816;2023-12-07T04:37:15;170.93;;;66.67;;
17763;SDS011;22245;52.832;13.816;2023-12-07T04:40:36;184.73;;;68.33;;
17763;SDS011;22245;52.832;13.816;2023-12-07T04:44:00;164.87;;;63.40;;
17763;SDS011;22245;52.832;13.816;2023-12-07T04:47:22;170.20;;;66.20;;
17763;SDS011;22245;52.832;13.816;2023-12-07T04:50:43;185.57;;;68.40;;
17763;SDS011;22245;52.832;13.816;2023-12-07T04:54:05;171.33;;;66.27;;
17763;SDS011;22245;52.832;13.816;2023-12-07T04:57:38;178.63;;;67.13;;
17763;SDS011;22245;52.832;13.816;2023-12-07T05:01:01;163.83;;;66.50;;
17763;SDS011;22245;52.832;13.816;2023-12-07T05:04:24;168.50;;;67.40;;
17763;SDS011;22245;52.832;13.816;2023-12-07T05:07:46;161.03;;;64.60;;
17763;SDS011;22245;52.832;13.816;2023-12-07T05:11:07;164.07;;;64.77;;
17763;SDS011;22245;52.832;13.816;2023-12-07T05:14:30;162.77;;;65.30;;
17763;SDS011;22245;52.832;13.816;2023-12-07T05:17:53;165.77;;;67.27;;
17763;SDS011;22245;52.832;13.816;2023-12-07T05:21:15;170.60;;;64.77;;
17763;SDS011;22245;52.832;13.816;2023-12-07T05:24:36;178.27;;;67.70;;
17763;SDS011;22245;52.832;13.816;2023-12-07T05:27:58;171.50;;;65.53;;
17763;SDS011;22245;52.832;13.816;2023-12-07T05:31:19;163.83;;;63.37;;
17763;SDS011;22245;52.832;13.816;2023-12-07T05:34:42;160.17;;;63.60;;
17763;SDS011;22245;52.832;13.816;2023-12-07T05:38:03;164.70;;;64.17;;
17763;SDS011;22245;52.832;13.816;2023-12-07T05:41:25;159.93;;;64.70;;
17763;SDS011;22245;52.832;13.816;2023-12-07T05:44:47;169.77;;;65.47;;
17763;SDS011;22245;52.832;13.816;2023-12-07T05:48:09;165.30;;;64.03;;
17763;SDS011;22245;52.832;13.816;2023-12-07T05:51:33;157.27;;;63.80;;
17763;SDS011;22245;52.832;13.816;2023-12-07T05:54:54;155.43;;;63.63;;
17763;SDS011;22245;52.832;13.816;2023-12-07T05:58:15;152.23;;;61.07;;
17763;SDS011;22245;52.832;13.816;2023-12-07T06:01:38;162.33;;;61.80;;
17763;SDS011;22245;52.832;13.816;2023-12-07T06:04:59;161.07;;;63.00;;
17763;SDS011;22245;52.832;13.816;2023-12-07T06:08:22;161.53;;;62.97;;
17763;SDS011;22245;52.832;13.816;2023-12-07T06:11:44;154.53;;;63.77;;
17763;SDS011;22245;52.832;13.816;2023-12-07T06:15:06;159.60;;;61.97;;
17763;SDS011;22245;52.832;13.816;2023-12-07T06:18:28;152.33;;;60.87;;
17763;SDS011;22245;52.832;13.816;2023-12-07T06:21:50;154.87;;;61.80;;
17763;SDS011;22245;52.832;13.816;2023-12-07T06:25:12;154.97;;;61.30;;
17763;SDS011;22245;52.832;13.816;2023-12-07T06:28:35;157.90;;;61.53;;
17763;SDS011;22245;52.832;13.816;2023-12-07T06:31:57;153.37;;;62.33;;
17763;SDS011;22245;52.832;13.816;2023-12-07T06:35:18;153.23;;;62.50;;
17763;SDS011;22245;52.832;13.816;2023-12-07T06:38:39;158.13;;;62.13;;
17763;SDS011;22245;52.832;13.816;2023-12-07T06:42:02;159.60;;;64.23;;
17763;SDS011;22245;52.832;13.816;2023-12-07T06:45:24;156.73;;;64.13;;
17763;SDS011;22245;52.832;13.816;2023-12-07T06:48:45;153.67;;;62.40;;
17763;SDS011;22245;52.832;13.816;2023-12-07T06:52:07;151.87;;;62.00;;
17763;SDS011;22245;52.832;13.816;2023-12-07T06:55:31;163.47;;;65.63;;
17763;SDS011;22245;52.832;13.816;2023-12-07T06:58:59;157.30;;;64.47;;
17763;SDS011;22245;52.832;13.816;2023-12-07T07:02:20;147.87;;;60.43;;
17763;SDS011;22245;52.832;13.816;2023-12-07T07:05:43;159.73;;;63.93;;
17763;SDS011;22245;52.832;13.816;2023-12-07T07:09:05;153.17;;;62.13;;
17763;SDS011;22245;52.832;13.816;2023-12-07T07:12:27;162.17;;;63.67;;
17763;SDS011;22245;52.832;13.816;2023-12-07T07:15:51;150.47;;;63.90;;
17763;SDS011;22245;52.832;13.816;2023-12-07T07:19:14;153.93;;;61.63;;
17763;SDS011;22245;52.832;13.816;2023-12-07T07:22:37;159.07;;;64.30;;
17763;SDS011;22245;52.832;13.816;2023-12-07T07:25:59;160.30;;;64.20;;
17763;SDS011;22245;52.832;13.816;2023-12-07T07:29:20;159.27;;;64.17;;
17763;SDS011;22245;52.832;13.816;2023-12-07T07:32:43;157.00;;;65.57;;
17763;SDS011;22245;52.832;13.816;2023-12-07T07:36:05;154.63;;;64.30;;
17763;SDS011;22245;52.832;13.816;2023-12-07T07:39:27;153.17;;;62.27;;
17763;SDS011;22245;52.832;13.816;2023-12-07T07:42:48;156.50;;;63.83;;
17763;SDS011;22245;52.832;13.816;2023-12-07T07:46:09;156.30;;;63.80;;
17763;SDS011;22245;52.832;13.816;2023-12-07T07:49:32;167.33;;;66.93;;
17763;SDS011;22245;52.832;13.816;2023-12-07T07:52:54;161.53;;;66.33;;
17763;SDS011;22245;52.832;13.816;2023-12-07T07:56:15;160.80;;;66.50;;
17763;SDS011;22245;52.832;13.816;2023-12-07T07:59:37;160.07;;;65.33;;
17763;SDS011;22245;52.832;13.816;2023-12-07T08:02:59;154.97;;;65.43;;
17763;SDS011;22245;52.832;13.816;2023-12-07T08:06:22;153.40;;;63.60;;
17763;SDS011;22245;52.832;13.816;2023-12-07T08:09:43;153.23;;;63.93;;
17763;SDS011;22245;52.832;13.816;2023-12-07T08:13:05;159.23;;;62.27;;
17763;SDS011;22245;52.832;13.816;2023-12-07T08:16:27;152.60;;;62.37;;
17763;SDS011;22245;52.832;13.816;2023-12-07T08:19:49;150.27;;;63.00;;
17763;SDS011;22245;52.832;13.816;2023-12-07T08:23:12;149.10;;;61.03;;
17763;SDS011;22245;52.832;13.816;2023-12-07T08:26:34;149.20;;;60.93;;
17763;SDS011;22245;52.832;13.816;2023-12-07T08:29:55;147.80;;;62.57;;
17763;SDS011;22245;52.832;13.816;2023-12-07T08:33:17;152.57;;;62.97;;
17763;SDS011;22245;52.832;13.816;2023-12-07T08:36:38;147.57;;;62.20;;
17763;SDS011;22245;52.832;13.816;2023-12-07T08:40:02;154.97;;;62.97;;
17763;SDS011;22245;52.832;13.816;2023-12-07T08:43:24;148.40;;;60.93;;
17763;SDS011;22245;52.832;13.816;2023-12-07T08:46:45;151.53;;;61.67;;
17763;SDS011;22245;52.832;13.816;2023-12-07T08:50:07;144.70;;;57.97;;
17763;SDS011;22245;52.832;13.816;2023-12-07T08:53:30;133.13;;;57.20;;
17763;SDS011;22245;52.832;13.816;2023-12-07T08:56:53;142.17;;;59.40;;
17763;SDS011;22245;52.832;13.816;2023-12-07T09:00:16;147.30;;;59.23;;
17763;SDS011;22245;52.832;13.816;2023-12-07T09:03:43;101.87;;;41.70;;
17763;SDS011;22245;52.832;13.816;2023-12-07T09:07:05;88.93;;;35.90;;
17763;SDS011;22245;52.832;13.816;2023-12-07T09:10:27;76.77;;;30.20;;
17763;SDS011;22245;52.832;13.816;2023-12-07T09:13:50;72.70;;;27.67;;
17763;SDS011;22245;52.832;13.816;2023-12-07T09:17:12;69.53;;;25.90;;
17763;SDS011;22245;52.832;13.816;2023-12-07T09:20:33;66.73;;;25.77;;
17763;SDS011;22245;52.832;13.816;2023-12-07T09:23:54;58.97;;;23.07;;
17763;SDS011;22245;52.832;13.816;2023-12-07T09:27:16;63.30;;;22.93;;
17763;SDS011;22245;52.832;13.816;2023-12-07T09:30:38;67.27;;;24.53;;
17763;SDS011;22245;52.832;13.816;2023-12-07T09:34:00;61.63;;;23.30;;
17763;SDS011;22245;52.832;13.816;2023-12-07T09:37:32;61.70;;;21.17;;
17763;SDS011;22245;52.832;13.816;2023-12-07T09:40:54;57.53;;;22.50;;
17763;SDS011;22245;52.832;13.816;2023-12-07T09:44:16;59.63;;;21.13;;
17763;SDS011;22245;52.832;13.816;2023-12-07T09:47:39;56.43;;;21.63;;
17763;SDS011;22245;52.832;13.816;2023-12-07T09:51:02;61.57;;;20.77;;
17763;SDS011;22245;52.832;13.816;2023-12-07T09:54:27;54.43;;;19.67;;
17763;SDS011;22245;52.832;13.816;2023-12-07T09:57:50;48.50;;;18.63;;
17763;SDS011;22245;52.832;13.816;2023-12-07T10:01:14;52.07;;;20.23;;
17763;SDS011;22245;52.832;13.816;2023-12-07T10:04:37;58.13;;;20.57;;
17763;SDS011;22245;52.832;13.816;2023-12-07T10:08:00;53.33;;;20.00;;
17763;SDS011;22245;52.832;13.816;2023-12-07T10:11:22;49.73;;;19.40;;
17763;SDS011;22245;52.832;13.816;2023-12-07T10:14:43;48.13;;;20.13;;
17763;SDS011;22245;52.832;13.816;2023-12-07T10:18:05;50.80;;;20.27;;
17763;SDS011;22245;52.832;13.816;2023-12-07T10:21:32;46.77;;;19.53;;
17763;SDS011;22245;52.832;13.816;2023-12-07T10:24:54;43.47;;;17.20;;
17763;SDS011;22245;52.832;13.816;2023-12-07T10:28:15;43.57;;;18.23;;
17763;SDS011;22245;52.832;13.816;2023-12-07T10:31:38;50.70;;;19.93;;
17763;SDS011;22245;52.832;13.816;2023-12-07T10:35:00;42.07;;;17.67;;
17763;SDS011;22245;52.832;13.816;2023-12-07T10:38:22;45.83;;;19.37;;
17763;SDS011;22245;52.832;13.816;2023-12-07T10:41:44;38.60;;;16.77;;
17763;SDS011;22245;52.832;13.816;2023-12-07T10:45:08;44.73;;;19.07;;
17763;SDS011;22245;52.832;13.816;2023-12-07T10:48:34;41.80;;;17.03;;
17763;SDS011;22245;52.832;13.816;2023-12-07T10:51:58;42.27;;;17.37;;
17763;SDS011;22245;52.832;13.816;2023-12-07T10:55:26;37.60;;;17.50;;
17763;SDS011;22245;52.832;13.816;2023-12-07T10:58:51;37.53;;;16.60;;
17763;SDS011;22245;52.832;13.816;2023-12-07T11:02:16;40.83;;;17.43;;
17763;SDS011;22245;52.832;13.816;2023-12-07T11:05:41;40.67;;;16.53;;
17763;SDS011;22245;52.832;13.816;2023-12-07T11:09:04;40.13;;;16.67;;
17763;SDS011;22245;52.832;13.816;2023-12-07T11:12:36;44.10;;;17.83;;
17763;SDS011;22245;52.832;13.816;2023-12-07T11:16:08;42.70;;;16.60;;
17763;SDS011;22245;52.832;13.816;2023-12-07T11:19:48;39.77;;;16.97;;
17763;SDS011;22245;52.832;13.816;2023-12-07T11:23:10;40.97;;;17.30;;
17763;SDS011;22245;52.832;13.816;2023-12-07T11:26:31;40.07;;;17.77;;
17763;SDS011;22245;52.832;13.816;2023-12-07T11:29:54;42.13;;;17.03;;
17763;SDS011;22245;52.832;13.816;2023-12-07T11:33:16;36.10;;;16.40;;
17763;SDS011;22245;52.832;13.816;2023-12-07T11:36:38;34.27;;;15.57;;
17763;SDS011;22245;52.832;13.816;2023-12-07T11:39:59;39.70;;;17.13;;
17763;SDS011;22245;52.832;13.816;2023-12-07T11:43:30;41.70;;;16.73;;
17763;SDS011;22245;52.832;13.816;2023-12-07T11:46:59;40.50;;;17.77;;
17763;SDS011;22245;52.832;13.816;2023-12-07T11:50:21;38.77;;;17.37;;
17763;SDS011;22245;52.832;13.816;2023-12-07T11:53:43;38.90;;;17.23;;
17763;SDS011;22245;52.832;13.816;2023-12-07T11:57:05;38.43;;;15.97;;
17763;SDS011;22245;52.832;13.816;2023-12-07T12:00:26;34.87;;;15.33;;
17763;SDS011;22245;52.832;13.816;2023-12-07T12:03:50;38.27;;;15.47;;
17763;SDS011;22245;52.832;13.816;2023-12-07T12:07:11;38.37;;;16.77;;
17763;SDS011;22245;52.832;13.816;2023-12-07T12:10:33;42.23;;;17.70;;
17763;SDS011;22245;52.832;13.816;2023-12-07T12:13:55;39.57;;;17.80;;
17763;SDS011;22245;52.832;13.816;2023-12-07T12:17:17;37.20;;;16.03;;
17763;SDS011;22245;52.832;13.816;2023-12-07T12:20:41;36.17;;;15.30;;
17763;SDS011;22245;52.832;13.816;2023-12-07T12:24:05;36.30;;;15.90;;
17763;SDS011;22245;52.832;13.816;2023-12-07T12:27:28;36.10;;;15.57;;
17763;SDS011;22245;52.832;13.816;2023-12-07T12:30:51;34.40;;;16.40;;
17763;SDS011;22245;52.832;13.816;2023-12-07T12:34:13;38.40;;;17.17;;
17763;SDS011;22245;52.832;13.816;2023-12-07T12:37:36;37.27;;;16.63;;
17763;SDS011;22245;52.832;13.816;2023-12-07T12:40:59;39.87;;;17.53;;
17763;SDS011;22245;52.832;13.816;2023-12-07T12:44:20;37.50;;;16.27;;
17763;SDS011;22245;52.832;13.816;2023-12-07T12:47:55;35.57;;;16.20;;
17763;SDS011;22245;52.832;13.816;2023-12-07T12:51:18;33.23;;;15.27;;
17763;SDS011;22245;52.832;13.816;2023-12-07T12:54:43;38.27;;;16.90;;
17763;SDS011;22245;52.832;13.816;2023-12-07T12:58:06;36.10;;;16.27;;
17763;SDS011;22245;52.832;13.816;2023-12-07T13:01:28;33.93;;;16.10;;
17763;SDS011;22245;52.832;13.816;2023-12-07T13:04:50;39.63;;;17.17;;
17763;SDS011;22245;52.832;13.816;2023-12-07T13:08:12;37.80;;;16.97;;
17763;SDS011;22245;52.832;13.816;2023-12-07T13:11:36;40.63;;;16.97;;
17763;SDS011;22245;52.832;13.816;2023-12-07T13:14:57;43.00;;;17.77;;
17763;SDS011;22245;52.832;13.816;2023-12-07T13:18:19;38.37;;;17.03;;
17763;SDS011;22245;52.832;13.816;2023-12-07T13:21:41;35.80;;;16.00;;
17763;SDS011;22245;52.832;13.816;2023-12-07T13:25:03;37.37;;;16.50;;
17763;SDS011;22245;52.832;13.816;2023-12-07T13:28:27;42.17;;;18.17;;
17763;SDS011;22245;52.832;13.816;2023-12-07T13:31:49;36.80;;;16.17;;
17763;SDS011;22245;52.832;13.816;2023-12-07T13:35:11;34.07;;;14.83;;
17763;SDS011;22245;52.832;13.816;2023-12-07T13:38:33;33.57;;;15.40;;
17763;SDS011;22245;52.832;13.816;2023-12-07T13:41:55;35.40;;;16.17;;
17763;SDS011;22245;52.832;13.816;2023-12-07T13:45:18;31.80;;;14.63;;
17763;SDS011;22245;52.832;13.816;2023-12-07T13:48:40;34.83;;;15.43;;
17763;SDS011;22245;52.832;13.816;2023-12-07T13:52:01;32.33;;;14.87;;
17763;SDS011;22245;52.832;13.816;2023-12-07T13:55:27;34.17;;;14.87;;
17763;SDS011;22245;52.832;13.816;2023-12-07T13:58:49;33.60;;;14.37;;
17763;SDS011;22245;52.832;13.816;2023-12-07T14:02:12;33.93;;;14.57;;
17763;SDS011;22245;52.832;13.816;2023-12-07T14:05:35;33.10;;;14.67;;
17763;SDS011;22245;52.832;13.816;2023-12-07T14:08:57;32.80;;;15.23;;
17763;SDS011;22245;52.832;13.816;2023-12-07T14:12:18;33.80;;;15.23;;
17763;SDS011;22245;52.832;13.816;2023-12-07T14:15:40;30.90;;;13.60;;
17763;SDS011;22245;52.832;13.816;2023-12-07T14:19:06;34.33;;;15.03;;
17763;SDS011;22245;52.832;13.816;2023-12-07T14:22:34;33.80;;;14.70;;
17763;SDS011;22245;52.832;13.816;2023-12-07T14:25:56;35.13;;;15.30;;
17763;SDS011;22245;52.832;13.816;2023-12-07T14:29:23;34.67;;;15.17;;
17763;SDS011;22245;52.832;13.816;2023-12-07T14:32:47;35.00;;;15.30;;
17763;SDS011;22245;52.832;13.816;2023-12-07T14:36:14;36.37;;;15.70;;
17763;SDS011;22245;52.832;13.816;2023-12-07T14:39:36;37.87;;;15.97;;
17763;SDS011;22245;52.832;13.816;2023-12-07T14:43:00;31.47;;;14.27;;
17763;SDS011;22245;52.832;13.816;2023-12-07T14:46:23;34.37;;;15.57;;
17763;SDS011;22245;52.832;13.816;2023-12-07T14:49:44;32.57;;;15.83;;
17763;SDS011;22245;52.832;13.816;2023-12-07T14:53:07;33.00;;;14.97;;
17763;SDS011;22245;52.832;13.816;2023-12-07T14:56:30;37.63;;;15.30;;
17763;SDS011;22245;52.832;13.816;2023-12-07T14:59:53;37.40;;;16.00;;
17763;SDS011;22245;52.832;13.816;2023-12-07T15:03:18;38.70;;;15.17;;
17763;SDS011;22245;52.832;13.816;2023-12-07T15:06:39;34.43;;;15.33;;
17763;SDS011;22245;52.832;13.816;2023-12-07T15:10:02;41.13;;;18.17;;
17763;SDS011;22245;52.832;13.816;2023-12-07T15:13:24;36.37;;;16.10;;
17763;SDS011;22245;52.832;13.816;2023-12-07T15:16:46;39.03;;;16.43;;
17763;SDS011;22245;52.832;13.816;2023-12-07T15:20:09;38.20;;;16.67;;
17763;SDS011;22245;52.832;13.816;2023-12-07T15:23:31;37.80;;;17.47;;
17763;SDS011;22245;52.832;13.816;2023-12-07T15:26:54;38.93;;;17.13;;
17763;SDS011;22245;52.832;13.816;2023-12-07T15:30:16;42.20;;;17.70;;
17763;SDS011;22245;52.832;13.816;2023-12-07T15:33:38;39.57;;;18.00;;
17763;SDS011;22245;52.832;13.816;2023-12-07T15:37:00;43.83;;;18.60;;
17763;SDS011;22245;52.832;13.816;2023-12-07T15:40:21;43.83;;;19.73;;
17763;SDS011;22245;52.832;13.816;2023-12-07T15:43:44;42.47;;;18.27;;
17763;SDS011;22245;52.832;13.816;2023-12-07T15:47:05;44.13;;;18.73;;
17763;SDS011;22245;52.832;13.816;2023-12-07T15:50:27;42.33;;;18.80;;
17763;SDS011;22245;52.832;13.816;2023-12-07T15:53:49;47.70;;;19.17;;
17763;SDS011;22245;52.832;13.816;2023-12-07T15:57:11;44.47;;;20.47;;
17763;SDS011;22245;52.832;13.816;2023-12-07T16:00:34;46.80;;;20.30;;
17763;SDS011;22245;52.832;13.816;2023-12-07T16:03:55;43.83;;;18.87;;
17763;SDS011;22245;52.832;13.816;2023-12-07T16:07:18;43.90;;;18.83;;
17763;SDS011;22245;52.832;13.816;2023-12-07T16:10:40;42.13;;;18.33;;
17763;SDS011;22245;52.832;13.816;2023-12-07T16:14:01;50.07;;;20.83;;
17763;SDS011;22245;52.832;13.816;2023-12-07T16:17:25;44.27;;;18.97;;
17763;SDS011;22245;52.832;13.816;2023-12-07T16:20:47;45.27;;;19.07;;
17763;SDS011;22245;52.832;13.816;2023-12-07T16:24:10;44.27;;;17.63;;
17763;SDS011;22245;52.832;13.816;2023-12-07T16:27:31;47.47;;;19.97;;
17763;SDS011;22245;52.832;13.816;2023-12-07T16:30:53;41.73;;;17.03;;
17763;SDS011;22245;52.832;13.816;2023-12-07T16:34:16;45.70;;;18.77;;
17763;SDS011;22245;52.832;13.816;2023-12-07T16:37:38;45.50;;;18.03;;
17763;SDS011;22245;52.832;13.816;2023-12-07T16:40:59;45.63;;;18.73;;
17763;SDS011;22245;52.832;13.816;2023-12-07T16:44:21;46.63;;;18.93;;
17763;SDS011;22245;52.832;13.816;2023-12-07T16:47:43;45.00;;;18.37;;
17763;SDS011;22245;52.832;13.816;2023-12-07T16:51:09;46.97;;;19.03;;
17763;SDS011;22245;52.832;13.816;2023-12-07T16:54:31;48.23;;;19.07;;
17763;SDS011;22245;52.832;13.816;2023-12-07T16:57:52;44.27;;;18.80;;
17763;SDS011;22245;52.832;13.816;2023-12-07T17:01:15;49.00;;;19.03;;
17763;SDS011;22245;52.832;13.816;2023-12-07T17:04:37;53.23;;;20.73;;
17763;SDS011;22245;52.832;13.816;2023-12-07T17:08:01;53.40;;;20.23;;
17763;SDS011;22245;52.832;13.816;2023-12-07T17:11:23;55.17;;;21.10;;
17763;SDS011;22245;52.832;13.816;2023-12-07T17:14:44;50.67;;;20.57;;
17763;SDS011;22245;52.832;13.816;2023-12-07T17:18:06;55.23;;;20.37;;
17763;SDS011;22245;52.832;13.816;2023-12-07T17:21:28;56.67;;;22.30;;
17763;SDS011;22245;52.832;13.816;2023-12-07T17:24:52;61.00;;;22.20;;
17763;SDS011;22245;52.832;13.816;2023-12-07T17:28:13;53.70;;;21.07;;
17763;SDS011;22245;52.832;13.816;2023-12-07T17:31:34;59.57;;;21.63;;
17763;SDS011;22245;52.832;13.816;2023-12-07T17:34:56;51.27;;;20.90;;
17763;SDS011;22245;52.832;13.816;2023-12-07T17:38:18;59.20;;;22.77;;
17763;SDS011;22245;52.832;13.816;2023-12-07T17:41:40;51.47;;;22.00;;
17763;SDS011;22245;52.832;13.816;2023-12-07T17:45:02;60.70;;;21.77;;
17763;SDS011;22245;52.832;13.816;2023-12-07T17:48:24;56.87;;;21.30;;
17763;SDS011;22245;52.832;13.816;2023-12-07T17:51:46;60.10;;;23.07;;
17763;SDS011;22245;52.832;13.816;2023-12-07T17:55:07;57.23;;;23.23;;
17763;SDS011;22245;52.832;13.816;2023-12-07T17:58:31;59.93;;;23.90;;
17763;SDS011;22245;52.832;13.816;2023-12-07T18:01:52;61.93;;;25.13;;
17763;SDS011;22245;52.832;13.816;2023-12-07T18:05:13;57.23;;;22.30;;
17763;SDS011;22245;52.832;13.816;2023-12-07T18:08:35;56.47;;;20.97;;
17763;SDS011;22245;52.832;13.816;2023-12-07T18:11:56;50.60;;;20.40;;
17763;SDS011;22245;52.832;13.816;2023-12-07T18:15:20;54.00;;;22.77;;
17763;SDS011;22245;52.832;13.816;2023-12-07T18:18:42;62.10;;;22.47;;
17763;SDS011;22245;52.832;13.816;2023-12-07T18:22:04;63.93;;;24.70;;
17763;SDS011;22245;52.832;13.816;2023-12-07T18:25:25;62.47;;;25.60;;
17763;SDS011;22245;52.832;13.816;2023-12-07T18:28:46;67.63;;;23.80;;
17763;SDS011;22245;52.832;13.816;2023-12-07T18:32:10;62.77;;;24.37;;
17763;SDS011;22245;52.832;13.816;2023-12-07T18:35:34;64.00;;;25.93;;
17763;SDS011;22245;52.832;13.816;2023-12-07T18:38:56;66.50;;;26.63;;
17763;SDS011;22245;52.832;13.816;2023-12-07T18:42:18;64.47;;;23.50;;
17763;SDS011;22245;52.832;13.816;2023-12-07T18:45:39;64.30;;;23.47;;
17763;SDS011;22245;52.832;13.816;2023-12-07T18:49:02;63.63;;;22.33;;
17763;SDS011;22245;52.832;13.816;2023-12-07T18:52:24;63.23;;;22.50;;
17763;SDS011;22245;52.832;13.816;2023-12-07T18:55:46;64.67;;;24.40;;
17763;SDS011;22245;52.832;13.816;2023-12-07T18:59:07;71.40;;;25.97;;
17763;SDS011;22245;52.832;13.816;2023-12-07T19:02:29;64.17;;;24.37;;
17763;SDS011;22245;52.832;13.816;2023-12-07T19:05:51;66.63;;;24.50;;
17763;SDS011;22245;52.832;13.816;2023-12-07T19:09:13;77.60;;;26.70;;
17763;SDS011;22245;52.832;13.816;2023-12-07T19:12:40;84.93;;;28.87;;
17763;SDS011;22245;52.832;13.816;2023-12-07T19:16:01;77.97;;;26.20;;
17763;SDS011;22245;52.832;13.816;2023-12-07T19:19:23;70.10;;;25.87;;